createdAt,value
2023-02-13T00:00:06.906Z,21.48
2023-02-13T00:00:16.923Z,21.74
2023-02-13T00:00:26.897Z,21.90
2023-02-13T00:00:36.980Z,21.94
2023-02-13T00:00:46.890Z,21.43
2023-02-13T00:00:57.158Z,21.89
2023-02-13T00:01:06.887Z,22.59
2023-02-13T00:01:16.906Z,23.95
2023-02-13T00:01:26.896Z,23.55
2023-02-13T00:01:36.888Z,22.48
2023-02-13T00:01:46.887Z,21.80
2023-02-13T00:01:56.907Z,21.04
2023-02-13T00:02:06.908Z,21.00
2023-02-13T00:02:16.923Z,21.18
2023-02-13T00:02:26.929Z,20.89
2023-02-13T00:02:36.921Z,20.64
2023-02-13T00:02:46.934Z,21.65
2023-02-13T00:02:56.896Z,21.46
2023-02-13T00:03:06.942Z,21.66
2023-02-13T00:03:16.972Z,21.64
2023-02-13T00:03:26.932Z,21.40
2023-02-13T00:03:36.972Z,21.54
2023-02-13T00:03:46.975Z,21.83
2023-02-13T00:03:56.960Z,20.90
2023-02-13T00:04:06.884Z,21.11
2023-02-13T00:04:16.880Z,21.26
2023-02-13T00:04:26.886Z,22.09
2023-02-13T00:04:36.892Z,22.74
2023-02-13T00:04:46.869Z,22.61
2023-02-13T00:04:56.906Z,21.95
2023-02-13T00:05:06.897Z,22.10
2023-02-13T00:05:16.877Z,22.68
2023-02-13T00:05:26.890Z,22.55
2023-02-13T00:05:36.888Z,22.31
2023-02-13T00:05:46.985Z,21.80
2023-02-13T00:05:56.897Z,22.03
2023-02-13T00:06:06.899Z,22.54
2023-02-13T00:06:16.907Z,22.91
2023-02-13T00:06:26.926Z,23.15
2023-02-13T00:06:36.928Z,23.81
2023-02-13T00:06:46.932Z,22.57
2023-02-13T00:06:56.955Z,21.89
2023-02-13T00:07:06.956Z,21.20
2023-02-13T00:07:16.946Z,21.81
2023-02-13T00:07:26.994Z,22.39
2023-02-13T00:07:36.989Z,22.28
2023-02-13T00:07:46.993Z,21.68
2023-02-13T00:07:57.431Z,21.15
2023-02-13T00:08:07.013Z,20.07
2023-02-13T00:08:17.008Z,20.75
2023-02-13T00:08:27.000Z,21.11
2023-02-13T00:08:37.001Z,21.63
2023-02-13T00:08:47.028Z,21.53
2023-02-13T00:08:57.058Z,21.29
2023-02-13T00:09:07.440Z,22.16
2023-02-13T00:09:17.015Z,22.65
2023-02-13T00:09:27.053Z,22.92
2023-02-13T00:09:37.033Z,23.01
2023-02-13T00:09:47.011Z,23.20
2023-02-13T00:09:57.009Z,22.50
2023-02-13T00:10:07.009Z,22.10
2023-02-13T00:10:17.003Z,21.68
2023-02-13T00:10:27.012Z,21.70
2023-02-13T00:10:37.017Z,22.20
2023-02-13T00:10:47.075Z,21.94
2023-02-13T00:10:57.217Z,21.56
2023-02-13T00:11:07.002Z,21.55
2023-02-13T00:11:17.002Z,22.14
2023-02-13T00:11:27.016Z,23.03
2023-02-13T00:11:37.001Z,23.19
2023-02-13T00:11:47.012Z,23.03
2023-02-13T00:11:56.995Z,23.95
2023-02-13T00:12:07.001Z,23.42
2023-02-13T00:12:17.013Z,23.24
2023-02-13T00:12:27.020Z,23.39
2023-02-13T00:12:37.020Z,22.81
2023-02-13T00:12:47.020Z,22.01
2023-02-13T00:12:57.001Z,21.71
2023-02-13T00:13:07.011Z,22.35
2023-02-13T00:13:16.996Z,23.42
2023-02-13T00:13:26.985Z,23.20
2023-02-13T00:13:36.982Z,22.60
2023-02-13T00:13:46.981Z,22.70
2023-02-13T00:13:56.980Z,22.48
2023-02-13T00:14:07.008Z,22.15
2023-02-13T00:14:17.005Z,22.13
2023-02-13T00:14:26.996Z,21.88
2023-02-13T00:14:37.010Z,21.89
2023-02-13T00:14:46.992Z,21.88
2023-02-13T00:14:56.969Z,21.70
2023-02-13T00:15:06.985Z,22.22
2023-02-13T00:15:16.989Z,22.41
2023-02-13T00:15:27.062Z,22.91
2023-02-13T00:15:37.025Z,22.69
2023-02-13T00:15:47.080Z,22.05
2023-02-13T00:15:57.076Z,22.52
2023-02-13T00:16:07.052Z,21.83
2023-02-13T00:16:17.044Z,22.45
2023-02-13T00:16:26.986Z,22.79
2023-02-13T00:16:36.990Z,21.92
2023-02-13T00:16:46.981Z,22.08
2023-02-13T00:16:56.986Z,22.67
2023-02-13T00:17:06.984Z,22.26
2023-02-13T00:17:16.985Z,22.49
2023-02-13T00:17:27.009Z,21.84
2023-02-13T00:17:36.980Z,20.49
2023-02-13T00:17:46.984Z,21.52
2023-02-13T00:17:57.025Z,22.74
2023-02-13T00:18:07.021Z,23.02
2023-02-13T00:18:17.024Z,23.10
2023-02-13T00:18:27.047Z,23.12
2023-02-13T00:18:37.038Z,22.78
2023-02-13T00:18:47.037Z,22.66
2023-02-13T00:18:57.077Z,22.70
2023-02-13T00:19:07.049Z,22.45
2023-02-13T00:19:17.054Z,21.92
2023-02-13T00:19:27.091Z,21.52
2023-02-13T00:19:37.078Z,21.36
2023-02-13T00:19:47.106Z,20.85
2023-02-13T00:19:57.117Z,21.21
2023-02-13T00:20:07.140Z,21.51
2023-02-13T00:20:17.119Z,22.88
2023-02-13T00:20:27.153Z,22.79
2023-02-13T00:20:37.153Z,22.33
2023-02-13T00:20:47.165Z,22.74
2023-02-13T00:20:57.438Z,22.79
2023-02-13T00:21:07.169Z,23.06
2023-02-13T00:21:17.174Z,23.56
2023-02-13T00:21:27.195Z,23.23
2023-02-13T00:21:37.167Z,22.90
2023-02-13T00:21:47.180Z,22.48
2023-02-13T00:21:57.181Z,22.82
2023-02-13T00:22:07.161Z,22.68
2023-02-13T00:22:17.158Z,22.89
2023-02-13T00:22:27.156Z,22.43
2023-02-13T00:22:37.162Z,22.09
2023-02-13T00:22:47.158Z,21.62
2023-02-13T00:22:57.158Z,21.77
2023-02-13T00:23:07.204Z,22.36
2023-02-13T00:23:17.167Z,23.17
2023-02-13T00:23:27.160Z,22.90
2023-02-13T00:23:37.160Z,22.65
2023-02-13T00:23:47.166Z,22.45
2023-02-13T00:23:57.158Z,22.15
2023-02-13T00:24:07.164Z,23.21
2023-02-13T00:24:17.157Z,23.40
2023-02-13T00:24:27.161Z,23.46
2023-02-13T00:24:37.165Z,23.08
2023-02-13T00:24:47.164Z,22.76
2023-02-13T00:24:57.160Z,22.56
2023-02-13T00:25:07.181Z,22.53
2023-02-13T00:25:17.154Z,22.12
2023-02-13T00:25:27.146Z,21.69
2023-02-13T00:25:37.152Z,21.59
2023-02-13T00:25:47.145Z,22.29
2023-02-13T00:25:57.134Z,22.80
2023-02-13T00:26:07.184Z,23.39
2023-02-13T00:26:17.144Z,22.58
2023-02-13T00:26:27.143Z,22.85
2023-02-13T00:26:37.154Z,22.71
2023-02-13T00:26:47.170Z,22.80
2023-02-13T00:26:57.154Z,23.29
2023-02-13T00:27:07.161Z,22.64
2023-02-13T00:27:17.152Z,21.97
2023-02-13T00:27:27.179Z,22.02
2023-02-13T00:27:37.185Z,22.30
2023-02-13T00:27:47.187Z,21.81
2023-02-13T00:27:57.212Z,22.01
2023-02-13T00:28:07.227Z,21.59
2023-02-13T00:28:17.246Z,22.31
2023-02-13T00:28:27.256Z,22.45
2023-02-13T00:28:37.253Z,22.06
2023-02-13T00:28:47.233Z,21.77
2023-02-13T00:28:57.253Z,21.08
2023-02-13T00:29:07.278Z,21.29
2023-02-13T00:29:17.235Z,21.84
2023-02-13T00:29:27.290Z,21.02
2023-02-13T00:29:37.278Z,20.98
2023-02-13T00:29:47.317Z,20.65
2023-02-13T00:29:57.300Z,20.86
2023-02-13T00:30:07.300Z,20.81
2023-02-13T00:30:17.295Z,21.25
2023-02-13T00:30:27.361Z,21.79
2023-02-13T00:30:37.324Z,21.57
2023-02-13T00:30:47.442Z,21.48
2023-02-13T00:30:57.767Z,20.71
2023-02-13T00:31:07.512Z,21.27
2023-02-13T00:31:17.505Z,21.51
2023-02-13T00:31:27.445Z,21.86
2023-02-13T00:31:37.480Z,22.85
2023-02-13T00:31:47.437Z,23.28
2023-02-13T00:31:57.446Z,22.62
2023-02-13T00:32:07.444Z,22.48
2023-02-13T00:32:17.389Z,21.71
2023-02-13T00:32:27.358Z,21.95
2023-02-13T00:32:37.344Z,22.25
2023-02-13T00:32:47.338Z,22.69
2023-02-13T00:32:57.339Z,23.07
2023-02-13T00:33:07.335Z,23.50
2023-02-13T00:33:17.346Z,23.26
2023-02-13T00:33:27.387Z,22.91
2023-02-13T00:33:37.385Z,22.82
2023-02-13T00:33:47.372Z,22.37
2023-02-13T00:33:57.392Z,22.19
2023-02-13T00:34:07.398Z,22.01
2023-02-13T00:34:17.400Z,21.48
2023-02-13T00:34:27.427Z,20.54
2023-02-13T00:34:37.425Z,20.19
2023-02-13T00:34:47.423Z,20.49
2023-02-13T00:34:57.437Z,21.12
2023-02-13T00:35:07.435Z,21.24
2023-02-13T00:35:17.449Z,21.75
2023-02-13T00:35:27.495Z,21.62
2023-02-13T00:35:37.471Z,22.16
2023-02-13T00:35:47.458Z,22.01
2023-02-13T00:35:57.498Z,21.48
2023-02-13T00:36:07.602Z,21.32
2023-02-13T00:36:17.503Z,21.38
2023-02-13T00:36:27.511Z,22.38
2023-02-13T00:36:37.524Z,21.98
2023-02-13T00:36:47.515Z,21.62
2023-02-13T00:36:57.541Z,22.58
2023-02-13T00:37:07.540Z,23.36
2023-02-13T00:37:17.538Z,23.22
2023-02-13T00:37:27.569Z,22.88
2023-02-13T00:37:37.557Z,22.97
2023-02-13T00:37:47.556Z,22.62
2023-02-13T00:37:57.591Z,22.31
2023-02-13T00:38:07.603Z,22.92
2023-02-13T00:38:17.609Z,22.39
2023-02-13T00:38:27.627Z,22.47
2023-02-13T00:38:37.610Z,22.38
2023-02-13T00:38:47.622Z,22.54
2023-02-13T00:38:57.641Z,22.43
2023-02-13T00:39:07.636Z,21.77
2023-02-13T00:39:17.637Z,20.96
2023-02-13T00:39:27.681Z,21.07
2023-02-13T00:39:37.664Z,20.69
2023-02-13T00:39:47.644Z,20.75
2023-02-13T00:39:57.692Z,21.17
2023-02-13T00:40:07.706Z,22.05
2023-02-13T00:40:17.698Z,21.44
2023-02-13T00:40:27.716Z,20.96
2023-02-13T00:40:37.712Z,20.37
2023-02-13T00:40:47.714Z,20.23
2023-02-13T00:40:58.022Z,20.04
2023-02-13T00:41:07.799Z,20.58
2023-02-13T00:41:17.744Z,20.78
2023-02-13T00:41:27.736Z,21.49
2023-02-13T00:41:37.743Z,22.57
2023-02-13T00:41:47.733Z,22.67
2023-02-13T00:41:57.747Z,22.64
2023-02-13T00:42:07.746Z,21.79
2023-02-13T00:42:17.725Z,22.08
2023-02-13T00:42:27.732Z,22.93
2023-02-13T00:42:37.741Z,23.24
2023-02-13T00:42:47.728Z,22.40
2023-02-13T00:42:57.739Z,22.18
2023-02-13T00:43:07.746Z,22.05
2023-02-13T00:43:18.550Z,21.17
2023-02-13T00:43:27.732Z,20.91
2023-02-13T00:43:37.736Z,21.35
2023-02-13T00:43:47.799Z,21.02
2023-02-13T00:43:57.737Z,21.35
2023-02-13T00:44:07.730Z,20.87
2023-02-13T00:44:17.740Z,20.43
2023-02-13T00:44:27.743Z,21.76
2023-02-13T00:44:37.711Z,22.46
2023-02-13T00:44:47.718Z,22.13
2023-02-13T00:44:57.725Z,23.03
2023-02-13T00:45:07.709Z,23.59
2023-02-13T00:45:17.735Z,24.18
2023-02-13T00:45:27.709Z,24.13
2023-02-13T00:45:37.734Z,24.48
2023-02-13T00:45:47.724Z,23.80
2023-02-13T00:45:57.752Z,23.35
2023-02-13T00:46:07.775Z,23.22
2023-02-13T00:46:17.876Z,24.03
2023-02-13T00:46:27.804Z,23.69
2023-02-13T00:46:37.745Z,23.38
2023-02-13T00:46:47.766Z,23.07
2023-02-13T00:46:57.711Z,22.82
2023-02-13T00:47:07.717Z,22.39
2023-02-13T00:47:17.717Z,21.98
2023-02-13T00:47:27.707Z,22.07
2023-02-13T00:47:37.721Z,22.79
2023-02-13T00:47:47.731Z,22.87
2023-02-13T00:47:57.712Z,23.46
2023-02-13T00:48:07.697Z,23.38
2023-02-13T00:48:17.734Z,23.07
2023-02-13T00:48:27.727Z,23.31
2023-02-13T00:48:37.740Z,22.79
2023-02-13T00:48:47.746Z,22.79
2023-02-13T00:48:57.721Z,22.62
2023-02-13T00:49:07.722Z,21.85
2023-02-13T00:49:17.725Z,21.72
2023-02-13T00:49:27.713Z,21.87
2023-02-13T00:49:37.716Z,22.89
2023-02-13T00:49:47.737Z,23.26
2023-02-13T00:49:57.704Z,22.04
2023-02-13T00:50:07.707Z,22.02
2023-02-13T00:50:17.715Z,21.83
2023-02-13T00:50:27.706Z,21.83
2023-02-13T00:50:37.722Z,22.26
2023-02-13T00:50:47.720Z,21.91
2023-02-13T00:50:57.975Z,22.07
2023-02-13T00:51:07.719Z,22.48
2023-02-13T00:51:17.715Z,22.86
2023-02-13T00:51:27.775Z,22.97
2023-02-13T00:51:37.721Z,22.69
2023-02-13T00:51:47.711Z,22.62
2023-02-13T00:51:57.702Z,23.10
2023-02-13T00:52:07.709Z,23.53
2023-02-13T00:52:17.701Z,24.08
2023-02-13T00:52:27.689Z,23.66
2023-02-13T00:52:37.739Z,23.69
2023-02-13T00:52:47.690Z,22.90
2023-02-13T00:52:57.703Z,22.76
2023-02-13T00:53:07.700Z,23.30
2023-02-13T00:53:17.689Z,23.80
2023-02-13T00:53:27.693Z,23.66
2023-02-13T00:53:37.687Z,23.89
2023-02-13T00:53:47.695Z,23.48
2023-02-13T00:53:57.694Z,22.59
2023-02-13T00:54:07.700Z,22.58
2023-02-13T00:54:17.701Z,22.34
2023-02-13T00:54:27.718Z,22.36
2023-02-13T00:54:37.693Z,22.33
2023-02-13T00:54:47.747Z,22.07
2023-02-13T00:54:57.695Z,22.35
2023-02-13T00:55:07.686Z,22.28
2023-02-13T00:55:17.694Z,22.50
2023-02-13T00:55:27.685Z,21.96
2023-02-13T00:55:37.703Z,21.20
2023-02-13T00:55:47.695Z,21.44
2023-02-13T00:55:57.710Z,21.67
2023-02-13T00:56:07.716Z,22.22
2023-02-13T00:56:17.698Z,22.67
2023-02-13T00:56:27.679Z,22.77
2023-02-13T00:56:37.778Z,22.79
2023-02-13T00:56:47.701Z,22.35
2023-02-13T00:56:57.700Z,23.44
2023-02-13T00:57:07.712Z,23.97
2023-02-13T00:57:17.701Z,23.53
2023-02-13T00:57:27.688Z,22.81
2023-02-13T00:57:37.688Z,22.49
2023-02-13T00:57:47.683Z,22.74
2023-02-13T00:57:57.670Z,21.93
2023-02-13T00:58:07.710Z,21.61
2023-02-13T00:58:17.691Z,21.76
2023-02-13T00:58:27.718Z,21.37
2023-02-13T00:58:37.749Z,21.70
2023-02-13T00:58:47.717Z,23.43
2023-02-13T00:58:57.674Z,23.61
2023-02-13T00:59:07.685Z,22.59
2023-02-13T00:59:17.733Z,22.26
2023-02-13T00:59:27.684Z,21.63
2023-02-13T00:59:37.696Z,21.53
2023-02-13T00:59:47.681Z,21.99
2023-02-13T00:59:57.675Z,22.86
2023-02-13T01:00:07.678Z,22.57
2023-02-13T01:00:17.678Z,22.12
2023-02-13T01:00:27.670Z,22.37
2023-02-13T01:00:37.678Z,21.96
2023-02-13T01:00:47.701Z,22.25
2023-02-13T01:00:57.990Z,22.00
2023-02-13T01:01:07.683Z,21.81
2023-02-13T01:01:17.716Z,21.29
2023-02-13T01:01:27.728Z,20.91
2023-02-13T01:01:37.735Z,21.41
2023-02-13T01:01:47.755Z,21.05
2023-02-13T01:01:57.713Z,20.60
2023-02-13T01:02:07.680Z,20.96
2023-02-13T01:02:17.674Z,21.76
2023-02-13T01:02:27.681Z,22.04
2023-02-13T01:02:37.674Z,21.97
2023-02-13T01:02:47.679Z,22.05
2023-02-13T01:02:57.684Z,22.87
2023-02-13T01:03:07.705Z,22.02
2023-02-13T01:03:17.747Z,21.44
2023-02-13T01:03:27.690Z,21.01
2023-02-13T01:03:37.751Z,21.13
2023-02-13T01:03:47.793Z,21.58
2023-02-13T01:03:57.767Z,21.60
2023-02-13T01:04:07.688Z,21.21
2023-02-13T01:04:17.654Z,21.91
2023-02-13T01:04:27.667Z,22.80
2023-02-13T01:04:37.655Z,22.15
2023-02-13T01:04:47.646Z,22.16
2023-02-13T01:04:57.674Z,21.72
2023-02-13T01:05:07.653Z,21.22
2023-02-13T01:05:17.657Z,21.49
2023-02-13T01:05:27.670Z,21.93
2023-02-13T01:05:37.651Z,21.67
2023-02-13T01:05:47.658Z,21.76
2023-02-13T01:05:57.656Z,21.21
2023-02-13T01:06:07.675Z,21.93
2023-02-13T01:06:17.674Z,21.75
2023-02-13T01:06:27.670Z,21.86
2023-02-13T01:06:37.688Z,22.55
2023-02-13T01:06:47.699Z,22.55
2023-02-13T01:06:57.794Z,22.44
2023-02-13T01:07:07.699Z,22.44
2023-02-13T01:07:17.740Z,21.41
2023-02-13T01:07:27.742Z,21.62
2023-02-13T01:07:37.707Z,21.80
2023-02-13T01:07:47.758Z,21.50
2023-02-13T01:07:57.803Z,22.49
2023-02-13T01:08:07.751Z,22.21
2023-02-13T01:08:17.784Z,22.27
2023-02-13T01:08:27.773Z,22.52
2023-02-13T01:08:37.778Z,22.28
2023-02-13T01:08:47.803Z,21.80
2023-02-13T01:08:57.801Z,21.12
2023-02-13T01:09:07.814Z,21.20
2023-02-13T01:09:17.848Z,21.64
2023-02-13T01:09:27.832Z,21.47
2023-02-13T01:09:37.852Z,21.28
2023-02-13T01:09:47.847Z,21.12
2023-02-13T01:09:57.859Z,21.04
2023-02-13T01:10:07.872Z,20.53
2023-02-13T01:10:17.887Z,19.99
2023-02-13T01:10:27.885Z,20.47
2023-02-13T01:10:37.880Z,20.88
2023-02-13T01:10:47.911Z,20.83
2023-02-13T01:10:58.204Z,20.88
2023-02-13T01:11:07.899Z,20.59
2023-02-13T01:11:17.915Z,21.06
2023-02-13T01:11:27.913Z,21.31
2023-02-13T01:11:37.919Z,20.90
2023-02-13T01:11:47.912Z,20.38
2023-02-13T01:11:57.980Z,20.44
2023-02-13T01:12:07.895Z,20.96
2023-02-13T01:12:17.923Z,21.09
2023-02-13T01:12:27.907Z,21.23
2023-02-13T01:12:37.934Z,20.88
2023-02-13T01:12:47.884Z,20.75
2023-02-13T01:12:57.906Z,21.15
2023-02-13T01:13:07.910Z,21.43
2023-02-13T01:13:17.899Z,21.03
2023-02-13T01:13:27.900Z,20.59
2023-02-13T01:13:37.893Z,20.37
2023-02-13T01:13:47.891Z,20.46
2023-02-13T01:13:57.902Z,19.89
2023-02-13T01:14:07.890Z,19.19
2023-02-13T01:14:17.896Z,19.86
2023-02-13T01:14:27.910Z,20.94
2023-02-13T01:14:37.894Z,20.81
2023-02-13T01:14:47.913Z,21.05
2023-02-13T01:14:57.895Z,21.23
2023-02-13T01:15:07.910Z,21.12
2023-02-13T01:15:17.910Z,21.80
2023-02-13T01:15:27.905Z,22.36
2023-02-13T01:15:37.921Z,22.45
2023-02-13T01:15:47.916Z,21.99
2023-02-13T01:15:57.926Z,21.10
2023-02-13T01:16:07.935Z,20.65
2023-02-13T01:16:18.064Z,20.38
2023-02-13T01:16:27.983Z,20.53
2023-02-13T01:16:37.896Z,20.01
2023-02-13T01:16:47.915Z,21.20
2023-02-13T01:16:57.929Z,20.80
2023-02-13T01:17:07.956Z,20.68
2023-02-13T01:17:17.959Z,20.94
2023-02-13T01:17:27.943Z,20.56
2023-02-13T01:17:37.941Z,20.24
2023-02-13T01:17:47.994Z,20.93
2023-02-13T01:17:57.963Z,21.15
2023-02-13T01:18:07.981Z,21.33
2023-02-13T01:18:18.014Z,20.82
2023-02-13T01:18:28.011Z,20.78
2023-02-13T01:18:37.997Z,20.95
2023-02-13T01:18:48.030Z,20.54
2023-02-13T01:18:58.014Z,21.16
2023-02-13T01:19:08.014Z,21.41
2023-02-13T01:19:18.036Z,20.90
2023-02-13T01:19:28.047Z,20.13
2023-02-13T01:19:38.040Z,19.60
2023-02-13T01:19:48.080Z,20.20
2023-02-13T01:19:58.050Z,21.19
2023-02-13T01:20:08.065Z,22.72
2023-02-13T01:20:18.095Z,23.38
2023-02-13T01:20:28.096Z,22.69
2023-02-13T01:20:38.092Z,22.02
2023-02-13T01:20:48.114Z,21.60
2023-02-13T01:20:58.343Z,21.44
2023-02-13T01:21:08.128Z,20.99
2023-02-13T01:21:18.118Z,20.44
2023-02-13T01:21:28.120Z,21.24
2023-02-13T01:21:38.127Z,21.65
2023-02-13T01:21:48.131Z,21.21
2023-02-13T01:21:58.116Z,21.26
2023-02-13T01:22:08.158Z,20.35
2023-02-13T01:22:18.114Z,19.86
2023-02-13T01:22:28.130Z,20.62
2023-02-13T01:22:38.118Z,19.97
2023-02-13T01:22:48.117Z,21.02
2023-02-13T01:22:58.138Z,21.72
2023-02-13T01:23:08.136Z,20.98
2023-02-13T01:23:18.130Z,20.63
2023-02-13T01:23:28.116Z,20.91
2023-02-13T01:23:38.120Z,21.06
2023-02-13T01:23:48.123Z,21.77
2023-02-13T01:23:58.130Z,22.22
2023-02-13T01:24:08.129Z,22.17
2023-02-13T01:24:18.118Z,22.79
2023-02-13T01:24:28.111Z,21.87
2023-02-13T01:24:38.131Z,21.44
2023-02-13T01:24:48.100Z,21.51
2023-02-13T01:24:58.141Z,21.22
2023-02-13T01:25:08.106Z,21.56
2023-02-13T01:25:18.105Z,21.72
2023-02-13T01:25:28.131Z,21.33
2023-02-13T01:25:38.102Z,20.71
2023-02-13T01:25:48.095Z,20.96
2023-02-13T01:25:58.088Z,21.18
2023-02-13T01:26:08.114Z,20.69
2023-02-13T01:26:18.095Z,21.08
2023-02-13T01:26:28.119Z,21.16
2023-02-13T01:26:38.126Z,21.58
2023-02-13T01:26:48.125Z,21.45
2023-02-13T01:26:58.129Z,21.53
2023-02-13T01:27:08.182Z,21.48
2023-02-13T01:27:18.215Z,21.89
2023-02-13T01:27:28.167Z,22.00
2023-02-13T01:27:38.186Z,21.79
2023-02-13T01:27:48.185Z,21.11
2023-02-13T01:27:58.197Z,21.63
2023-02-13T01:28:08.215Z,21.64
2023-02-13T01:28:18.249Z,22.17
2023-02-13T01:28:28.247Z,22.52
2023-02-13T01:28:38.246Z,22.09
2023-02-13T01:28:48.248Z,21.49
2023-02-13T01:28:58.226Z,21.70
2023-02-13T01:29:08.232Z,21.62
2023-02-13T01:29:18.267Z,21.66
2023-02-13T01:29:28.255Z,21.69
2023-02-13T01:29:38.266Z,21.04
2023-02-13T01:29:48.281Z,20.73
2023-02-13T01:29:58.278Z,21.48
2023-02-13T01:30:08.269Z,21.41
2023-02-13T01:30:18.301Z,20.99
2023-02-13T01:30:28.301Z,21.16
2023-02-13T01:30:38.337Z,21.43
2023-02-13T01:30:48.376Z,21.96
2023-02-13T01:30:58.760Z,21.53
2023-02-13T01:31:08.403Z,21.89
2023-02-13T01:31:18.463Z,22.67
2023-02-13T01:31:28.420Z,21.74
2023-02-13T01:31:38.428Z,20.52
2023-02-13T01:31:48.407Z,21.86
2023-02-13T01:31:58.352Z,22.24
2023-02-13T01:32:08.497Z,22.33
2023-02-13T01:32:18.456Z,22.40
2023-02-13T01:32:28.319Z,21.20
2023-02-13T01:32:38.336Z,21.13
2023-02-13T01:32:48.351Z,20.90
2023-02-13T01:32:58.356Z,20.99
2023-02-13T01:33:08.339Z,21.56
2023-02-13T01:33:18.329Z,21.96
2023-02-13T01:33:28.334Z,21.99
2023-02-13T01:33:38.331Z,21.71
2023-02-13T01:33:48.326Z,21.23
2023-02-13T01:33:58.316Z,20.18
2023-02-13T01:34:08.322Z,20.06
2023-02-13T01:34:18.345Z,20.49
2023-02-13T01:34:28.339Z,20.65
2023-02-13T01:34:38.344Z,20.82
2023-02-13T01:34:48.361Z,21.46
2023-02-13T01:34:58.371Z,22.12
2023-02-13T01:35:08.372Z,22.16
2023-02-13T01:35:18.381Z,21.74
2023-02-13T01:35:28.387Z,20.92
2023-02-13T01:35:38.391Z,20.33
2023-02-13T01:35:48.397Z,20.80
2023-02-13T01:35:58.402Z,21.35
2023-02-13T01:36:08.430Z,21.88
2023-02-13T01:36:18.448Z,22.26
2023-02-13T01:36:28.437Z,22.29
2023-02-13T01:36:38.432Z,22.02
2023-02-13T01:36:48.458Z,20.93
2023-02-13T01:36:58.455Z,20.90
2023-02-13T01:37:08.456Z,20.90
2023-02-13T01:37:18.577Z,20.70
2023-02-13T01:37:28.483Z,20.43
2023-02-13T01:37:38.495Z,20.94
2023-02-13T01:37:48.536Z,21.49
2023-02-13T01:37:58.506Z,20.81
2023-02-13T01:38:08.497Z,20.49
2023-02-13T01:38:18.557Z,21.41
2023-02-13T01:38:28.532Z,21.88
2023-02-13T01:38:38.562Z,21.92
2023-02-13T01:38:48.562Z,22.09
2023-02-13T01:38:58.568Z,21.44
2023-02-13T01:39:08.575Z,21.86
2023-02-13T01:39:18.568Z,22.19
2023-02-13T01:39:28.584Z,22.48
2023-02-13T01:39:38.571Z,22.30
2023-02-13T01:39:48.616Z,21.43
2023-02-13T01:39:58.593Z,21.04
2023-02-13T01:40:08.599Z,21.45
2023-02-13T01:40:18.637Z,21.90
2023-02-13T01:40:28.633Z,22.24
2023-02-13T01:40:38.642Z,21.73
2023-02-13T01:40:48.667Z,21.75
2023-02-13T01:40:58.960Z,21.57
2023-02-13T01:41:08.665Z,21.38
2023-02-13T01:41:18.643Z,21.37
2023-02-13T01:41:28.669Z,20.98
2023-02-13T01:41:38.656Z,20.60
2023-02-13T01:41:48.664Z,20.03
2023-02-13T01:41:58.655Z,20.77
2023-02-13T01:42:08.658Z,22.05
2023-02-13T01:42:18.754Z,21.79
2023-02-13T01:42:28.658Z,21.30
2023-02-13T01:42:38.654Z,21.08
2023-02-13T01:42:48.664Z,20.95
2023-02-13T01:42:58.651Z,21.67
2023-02-13T01:43:08.657Z,22.81
2023-02-13T01:43:18.677Z,22.57
2023-02-13T01:43:28.677Z,22.41
2023-02-13T01:43:38.653Z,21.85
2023-02-13T01:43:48.662Z,21.35
2023-02-13T01:43:58.666Z,20.73
2023-02-13T01:44:08.651Z,21.41
2023-02-13T01:44:18.657Z,21.94
2023-02-13T01:44:28.657Z,21.98
2023-02-13T01:44:38.649Z,23.06
2023-02-13T01:44:48.647Z,22.93
2023-02-13T01:44:58.631Z,22.44
2023-02-13T01:45:08.642Z,22.89
2023-02-13T01:45:18.640Z,22.88
2023-02-13T01:45:28.658Z,22.56
2023-02-13T01:45:38.629Z,22.26
2023-02-13T01:45:48.663Z,22.09
2023-02-13T01:45:58.652Z,21.53
2023-02-13T01:46:08.648Z,21.85
2023-02-13T01:46:18.699Z,22.07
2023-02-13T01:46:28.655Z,21.46
2023-02-13T01:46:38.762Z,21.40
2023-02-13T01:46:48.648Z,21.76
2023-02-13T01:46:58.649Z,22.07
2023-02-13T01:47:08.664Z,21.87
2023-02-13T01:47:18.684Z,22.06
2023-02-13T01:47:28.721Z,21.80
2023-02-13T01:47:38.691Z,22.59
2023-02-13T01:47:48.696Z,21.87
2023-02-13T01:47:58.698Z,21.51
2023-02-13T01:48:08.709Z,21.44
2023-02-13T01:48:18.797Z,22.15
2023-02-13T01:48:30.371Z,21.64
2023-02-13T01:48:38.709Z,21.50
2023-02-13T01:48:48.740Z,22.35
2023-02-13T01:48:58.714Z,22.87
2023-02-13T01:49:08.715Z,22.96
2023-02-13T01:49:18.792Z,22.50
2023-02-13T01:49:28.706Z,22.62
2023-02-13T01:49:38.717Z,23.68
2023-02-13T01:49:48.709Z,23.22
2023-02-13T01:49:58.712Z,22.98
2023-02-13T01:50:08.725Z,22.90
2023-02-13T01:50:18.722Z,22.82
2023-02-13T01:50:28.721Z,22.60
2023-02-13T01:50:38.723Z,22.66
2023-02-13T01:50:48.733Z,21.75
2023-02-13T01:50:59.051Z,22.12
2023-02-13T01:51:08.865Z,22.42
2023-02-13T01:51:18.882Z,23.32
2023-02-13T01:51:28.884Z,23.63
2023-02-13T01:51:38.886Z,22.90
2023-02-13T01:51:48.879Z,22.55
2023-02-13T01:51:58.885Z,22.41
2023-02-13T01:52:08.861Z,22.01
2023-02-13T01:52:18.890Z,21.86
2023-02-13T01:52:28.936Z,22.11
2023-02-13T01:52:38.877Z,22.56
2023-02-13T01:52:48.887Z,22.88
2023-02-13T01:52:58.880Z,22.78
2023-02-13T01:53:08.865Z,23.54
2023-02-13T01:53:18.867Z,23.37
2023-02-13T01:53:28.894Z,22.67
2023-02-13T01:53:38.857Z,22.19
2023-02-13T01:53:48.840Z,22.42
2023-02-13T01:53:58.866Z,22.07
2023-02-13T01:54:08.867Z,21.51
2023-02-13T01:54:18.844Z,21.56
2023-02-13T01:54:28.864Z,21.81
2023-02-13T01:54:38.869Z,22.51
2023-02-13T01:54:48.860Z,22.86
2023-02-13T01:54:58.872Z,22.14
2023-02-13T01:55:08.864Z,22.60
2023-02-13T01:55:18.858Z,22.70
2023-02-13T01:55:28.865Z,21.65
2023-02-13T01:55:38.862Z,22.24
2023-02-13T01:55:48.854Z,23.00
2023-02-13T01:55:58.856Z,22.47
2023-02-13T01:56:08.855Z,21.50
2023-02-13T01:56:18.872Z,21.13
2023-02-13T01:56:28.844Z,22.85
2023-02-13T01:56:38.850Z,23.18
2023-02-13T01:56:48.862Z,23.43
2023-02-13T01:56:58.855Z,23.05
2023-02-13T01:57:08.893Z,22.99
2023-02-13T01:57:18.873Z,22.89
2023-02-13T01:57:28.895Z,23.08
2023-02-13T01:57:38.938Z,22.72
2023-02-13T01:57:48.884Z,22.77
2023-02-13T01:57:58.907Z,22.54
2023-02-13T01:58:08.909Z,22.77
2023-02-13T01:58:18.933Z,23.09
2023-02-13T01:58:28.914Z,22.67
2023-02-13T01:58:38.969Z,21.70
2023-02-13T01:58:48.964Z,21.49
2023-02-13T01:58:58.949Z,21.62
2023-02-13T01:59:08.969Z,22.00
2023-02-13T01:59:18.974Z,22.41
2023-02-13T01:59:28.964Z,22.66
2023-02-13T01:59:38.988Z,22.86
2023-02-13T01:59:48.993Z,23.14
2023-02-13T01:59:59.004Z,23.34
2023-02-13T02:00:09.015Z,23.81
2023-02-13T02:00:19.033Z,23.68
2023-02-13T02:00:29.033Z,23.78
2023-02-13T02:00:39.050Z,23.43
2023-02-13T02:00:49.059Z,23.27
2023-02-13T02:00:59.241Z,23.88
2023-02-13T02:01:09.082Z,23.43
2023-02-13T02:01:19.096Z,22.97
2023-02-13T02:01:29.081Z,23.00
2023-02-13T02:01:39.223Z,22.87
2023-02-13T02:01:49.207Z,22.47
2023-02-13T02:01:59.203Z,21.99
2023-02-13T02:02:09.146Z,21.67
2023-02-13T02:02:19.210Z,20.98
2023-02-13T02:02:29.156Z,21.73
2023-02-13T02:02:39.198Z,23.35
2023-02-13T02:02:49.157Z,23.22
2023-02-13T02:02:59.054Z,22.48
2023-02-13T02:03:09.053Z,22.30
2023-02-13T02:03:19.048Z,22.96
2023-02-13T02:03:29.058Z,23.15
2023-02-13T02:03:39.077Z,22.88
2023-02-13T02:03:49.089Z,22.52
2023-02-13T02:03:59.084Z,22.54
2023-02-13T02:04:09.094Z,22.30
2023-02-13T02:04:19.081Z,21.74
2023-02-13T02:04:29.116Z,22.45
2023-02-13T02:04:39.110Z,23.16
2023-02-13T02:04:49.106Z,22.39
2023-02-13T02:04:59.107Z,22.11
2023-02-13T02:05:09.140Z,22.40
2023-02-13T02:05:19.148Z,22.46
2023-02-13T02:05:29.130Z,22.31
2023-02-13T02:05:39.185Z,21.67
2023-02-13T02:05:49.179Z,21.82
2023-02-13T02:05:59.182Z,22.43
2023-02-13T02:06:09.205Z,23.01
2023-02-13T02:06:19.187Z,23.21
2023-02-13T02:06:29.194Z,22.24
2023-02-13T02:06:39.218Z,21.89
2023-02-13T02:06:49.215Z,22.23
2023-02-13T02:06:59.214Z,21.88
2023-02-13T02:07:09.260Z,21.83
2023-02-13T02:07:19.257Z,22.63
2023-02-13T02:07:29.227Z,23.39
2023-02-13T02:07:39.328Z,23.38
2023-02-13T02:07:49.285Z,23.51
2023-02-13T02:07:59.251Z,22.36
2023-02-13T02:08:09.355Z,22.05
2023-02-13T02:08:19.286Z,21.96
2023-02-13T02:08:29.303Z,21.75
2023-02-13T02:08:39.312Z,21.96
2023-02-13T02:08:49.309Z,22.17